sensor_id;sensor_type;location;lat;lon;timestamp;temperature;humidity
12335;DHT22;6233;51.560;9.986;2022-12-29T00:01:30;8.80;99.90
12335;DHT22;6233;51.560;9.986;2022-12-29T00:04:32;8.80;99.90
12335;DHT22;6233;51.560;9.986;2022-12-29T00:07:34;8.80;99.90
12335;DHT22;6233;51.560;9.986;2022-12-29T00:10:35;8.80;99.90
12335;DHT22;6233;51.560;9.986;2022-12-29T00:13:38;8.80;99.90
12335;DHT22;6233;51.560;9.986;2022-12-29T00:16:58;8.80;99.90
12335;DHT22;6233;51.560;9.986;2022-12-29T00:20:00;8.80;99.90
12335;DHT22;6233;51.560;9.986;2022-12-29T00:23:21;8.90;99.90
12335;DHT22;6233;51.560;9.986;2022-12-29T00:26:42;8.80;99.90
12335;DHT22;6233;51.560;9.986;2022-12-29T00:30:02;8.80;99.90
12335;DHT22;6233;51.560;9.986;2022-12-29T00:33:27;8.80;99.90
12335;DHT22;6233;51.560;9.986;2022-12-29T00:36:48;8.90;99.90
12335;DHT22;6233;51.560;9.986;2022-12-29T00:39:50;8.90;99.90
12335;DHT22;6233;51.560;9.986;2022-12-29T00:43:10;8.90;99.90
12335;DHT22;6233;51.560;9.986;2022-12-29T00:46:34;8.90;99.90
12335;DHT22;6233;51.560;9.986;2022-12-29T00:49:36;8.90;99.90
12335;DHT22;6233;51.560;9.986;2022-12-29T00:52:38;8.90;99.90
12335;DHT22;6233;51.560;9.986;2022-12-29T00:55:40;9.00;99.90
12335;DHT22;6233;51.560;9.986;2022-12-29T00:58:41;9.00;99.90
12335;DHT22;6233;51.560;9.986;2022-12-29T01:01:43;9.00;99.90
12335;DHT22;6233;51.560;9.986;2022-12-29T01:04:45;9.00;99.90
12335;DHT22;6233;51.560;9.986;2022-12-29T01:07:47;8.90;99.90
12335;DHT22;6233;51.560;9.986;2022-12-29T01:11:06;8.90;99.90
12335;DHT22;6233;51.560;9.986;2022-12-29T01:14:08;8.90;99.90
12335;DHT22;6233;51.560;9.986;2022-12-29T01:17:10;8.90;99.90
12335;DHT22;6233;51.560;9.986;2022-12-29T01:20:11;9.00;99.90
12335;DHT22;6233;51.560;9.986;2022-12-29T01:23:14;9.00;99.90
12335;DHT22;6233;51.560;9.986;2022-12-29T01:26:18;9.00;99.90
12335;DHT22;6233;51.560;9.986;2022-12-29T01:29:19;9.00;99.90
12335;DHT22;6233;51.560;9.986;2022-12-29T01:32:22;9.00;99.90
12335;DHT22;6233;51.560;9.986;2022-12-29T01:35:24;9.00;99.90
12335;DHT22;6233;51.560;9.986;2022-12-29T01:38:25;9.10;99.90
12335;DHT22;6233;51.560;9.986;2022-12-29T01:41:27;9.10;99.90
12335;DHT22;6233;51.560;9.986;2022-12-29T01:48:02;9.10;99.90
12335;DHT22;6233;51.560;9.986;2022-12-29T01:51:05;9.10;99.90
12335;DHT22;6233;51.560;9.986;2022-12-29T01:54:11;9.10;99.90
12335;DHT22;6233;51.560;9.986;2022-12-29T01:57:20;9.20;99.90
12335;DHT22;6233;51.560;9.986;2022-12-29T02:00:23;9.20;99.90
12335;DHT22;6233;51.560;9.986;2022-12-29T02:03:25;9.20;99.90
12335;DHT22;6233;51.560;9.986;2022-12-29T02:06:45;9.20;99.90
12335;DHT22;6233;51.560;9.986;2022-12-29T02:09:48;9.20;99.90
12335;DHT22;6233;51.560;9.986;2022-12-29T02:12:51;9.20;99.90
12335;DHT22;6233;51.560;9.986;2022-12-29T02:22:34;9.30;99.90
12335;DHT22;6233;51.560;9.986;2022-12-29T02:46:19;9.50;99.90
12335;DHT22;6233;51.560;9.986;2022-12-29T02:49:06;9.50;99.90
12335;DHT22;6233;51.560;9.986;2022-12-29T02:52:15;9.60;99.90
12335;DHT22;6233;51.560;9.986;2022-12-29T02:55:18;9.60;99.90
12335;DHT22;6233;51.560;9.986;2022-12-29T02:58:22;9.60;99.90
12335;DHT22;6233;51.560;9.986;2022-12-29T03:11:18;9.70;99.90
12335;DHT22;6233;51.560;9.986;2022-12-29T03:14:51;9.60;99.90
12335;DHT22;6233;51.560;9.986;2022-12-29T03:18:24;9.70;99.90
12335;DHT22;6233;51.560;9.986;2022-12-29T03:21:37;9.60;99.90
12335;DHT22;6233;51.560;9.986;2022-12-29T03:28:25;9.70;99.90
12335;DHT22;6233;51.560;9.986;2022-12-29T03:31:29;9.70;99.90
12335;DHT22;6233;51.560;9.986;2022-12-29T03:34:32;9.60;99.90
12335;DHT22;6233;51.560;9.986;2022-12-29T03:37:51;9.60;99.90
12335;DHT22;6233;51.560;9.986;2022-12-29T03:40:59;9.60;99.90
12335;DHT22;6233;51.560;9.986;2022-12-29T03:44:02;9.60;99.90
12335;DHT22;6233;51.560;9.986;2022-12-29T03:47:05;9.60;99.90
12335;DHT22;6233;51.560;9.986;2022-12-29T03:50:08;9.60;99.90
12335;DHT22;6233;51.560;9.986;2022-12-29T03:53:10;9.60;99.90
12335;DHT22;6233;51.560;9.986;2022-12-29T03:56:11;9.60;99.90
12335;DHT22;6233;51.560;9.986;2022-12-29T03:59:13;9.60;99.90
12335;DHT22;6233;51.560;9.986;2022-12-29T04:02:15;9.60;99.90
12335;DHT22;6233;51.560;9.986;2022-12-29T04:05:19;9.60;99.90
12335;DHT22;6233;51.560;9.986;2022-12-29T04:08:20;9.60;99.90
12335;DHT22;6233;51.560;9.986;2022-12-29T04:11:22;9.60;99.90
12335;DHT22;6233;51.560;9.986;2022-12-29T04:14:31;9.60;99.90
12335;DHT22;6233;51.560;9.986;2022-12-29T04:17:33;9.60;99.90
12335;DHT22;6233;51.560;9.986;2022-12-29T04:20:35;9.70;99.90
12335;DHT22;6233;51.560;9.986;2022-12-29T04:23:55;9.70;99.90
12335;DHT22;6233;51.560;9.986;2022-12-29T04:26:57;9.70;99.90
12335;DHT22;6233;51.560;9.986;2022-12-29T04:29:58;9.60;99.90
12335;DHT22;6233;51.560;9.986;2022-12-29T04:33:00;9.70;99.90
12335;DHT22;6233;51.560;9.986;2022-12-29T04:36:02;9.70;99.90
12335;DHT22;6233;51.560;9.986;2022-12-29T04:39:04;9.70;99.90
12335;DHT22;6233;51.560;9.986;2022-12-29T04:42:06;9.60;99.90
12335;DHT22;6233;51.560;9.986;2022-12-29T04:45:08;9.60;99.90
12335;DHT22;6233;51.560;9.986;2022-12-29T04:48:10;9.60;99.90
12335;DHT22;6233;51.560;9.986;2022-12-29T04:51:12;9.70;99.90
12335;DHT22;6233;51.560;9.986;2022-12-29T04:54:15;9.70;99.90
12335;DHT22;6233;51.560;9.986;2022-12-29T04:57:16;9.60;99.90
12335;DHT22;6233;51.560;9.986;2022-12-29T05:00:19;9.60;99.90
12335;DHT22;6233;51.560;9.986;2022-12-29T05:03:21;9.70;99.90
12335;DHT22;6233;51.560;9.986;2022-12-29T05:06:22;9.70;99.90
12335;DHT22;6233;51.560;9.986;2022-12-29T05:09:24;9.70;99.90
12335;DHT22;6233;51.560;9.986;2022-12-29T05:12:30;9.70;99.90
12335;DHT22;6233;51.560;9.986;2022-12-29T05:15:32;9.70;99.90
12335;DHT22;6233;51.560;9.986;2022-12-29T05:18:34;9.70;99.90
12335;DHT22;6233;51.560;9.986;2022-12-29T05:21:35;9.70;99.90
12335;DHT22;6233;51.560;9.986;2022-12-29T05:24:37;9.70;99.90
12335;DHT22;6233;51.560;9.986;2022-12-29T05:27:39;9.70;99.90
12335;DHT22;6233;51.560;9.986;2022-12-29T05:30:40;9.70;99.90
12335;DHT22;6233;51.560;9.986;2022-12-29T05:33:42;9.70;99.90
12335;DHT22;6233;51.560;9.986;2022-12-29T05:36:44;9.70;99.90
12335;DHT22;6233;51.560;9.986;2022-12-29T05:39:46;9.70;99.90
12335;DHT22;6233;51.560;9.986;2022-12-29T05:42:47;9.70;99.90
12335;DHT22;6233;51.560;9.986;2022-12-29T05:45:49;9.70;99.90
12335;DHT22;6233;51.560;9.986;2022-12-29T05:48:51;9.70;99.90
12335;DHT22;6233;51.560;9.986;2022-12-29T05:51:55;9.80;99.90
12335;DHT22;6233;51.560;9.986;2022-12-29T05:54:56;9.70;99.90
12335;DHT22;6233;51.560;9.986;2022-12-29T05:57:58;9.80;99.90
12335;DHT22;6233;51.560;9.986;2022-12-29T06:01:00;9.80;99.90
12335;DHT22;6233;51.560;9.986;2022-12-29T06:04:02;9.80;99.90
12335;DHT22;6233;51.560;9.986;2022-12-29T06:07:04;9.80;99.90
12335;DHT22;6233;51.560;9.986;2022-12-29T06:10:06;9.80;99.90
12335;DHT22;6233;51.560;9.986;2022-12-29T06:13:08;9.80;99.90
12335;DHT22;6233;51.560;9.986;2022-12-29T06:16:13;9.80;99.90
12335;DHT22;6233;51.560;9.986;2022-12-29T06:19:15;9.80;99.90
12335;DHT22;6233;51.560;9.986;2022-12-29T06:22:18;9.70;99.90
12335;DHT22;6233;51.560;9.986;2022-12-29T06:25:20;9.70;99.90
12335;DHT22;6233;51.560;9.986;2022-12-29T06:28:22;9.70;99.90
12335;DHT22;6233;51.560;9.986;2022-12-29T06:31:24;9.80;99.90
12335;DHT22;6233;51.560;9.986;2022-12-29T06:34:26;9.80;99.90
12335;DHT22;6233;51.560;9.986;2022-12-29T06:37:28;9.80;99.90
12335;DHT22;6233;51.560;9.986;2022-12-29T06:40:29;9.80;99.90
12335;DHT22;6233;51.560;9.986;2022-12-29T06:43:31;9.80;99.90
12335;DHT22;6233;51.560;9.986;2022-12-29T06:46:37;9.90;99.90
12335;DHT22;6233;51.560;9.986;2022-12-29T06:49:41;9.90;99.90
12335;DHT22;6233;51.560;9.986;2022-12-29T06:52:43;9.80;99.90
12335;DHT22;6233;51.560;9.986;2022-12-29T06:55:44;9.80;99.90
12335;DHT22;6233;51.560;9.986;2022-12-29T06:58:46;9.80;99.90
12335;DHT22;6233;51.560;9.986;2022-12-29T07:01:51;9.80;99.90
12335;DHT22;6233;51.560;9.986;2022-12-29T07:04:53;9.80;99.90
12335;DHT22;6233;51.560;9.986;2022-12-29T07:08:01;9.90;99.90
12335;DHT22;6233;51.560;9.986;2022-12-29T07:11:05;9.80;99.90
12335;DHT22;6233;51.560;9.986;2022-12-29T07:14:07;9.80;99.90
12335;DHT22;6233;51.560;9.986;2022-12-29T07:17:09;9.80;99.90
12335;DHT22;6233;51.560;9.986;2022-12-29T07:20:11;9.80;99.90
12335;DHT22;6233;51.560;9.986;2022-12-29T07:23:13;9.80;99.90
12335;DHT22;6233;51.560;9.986;2022-12-29T07:26:15;9.80;99.90
12335;DHT22;6233;51.560;9.986;2022-12-29T07:29:19;9.80;99.90
12335;DHT22;6233;51.560;9.986;2022-12-29T07:32:21;9.80;99.90
12335;DHT22;6233;51.560;9.986;2022-12-29T07:35:23;9.70;99.90
12335;DHT22;6233;51.560;9.986;2022-12-29T07:38:24;9.80;99.90
12335;DHT22;6233;51.560;9.986;2022-12-29T07:41:26;9.70;99.90
12335;DHT22;6233;51.560;9.986;2022-12-29T07:44:28;9.70;99.90
12335;DHT22;6233;51.560;9.986;2022-12-29T07:47:30;9.70;99.90
12335;DHT22;6233;51.560;9.986;2022-12-29T07:50:35;9.70;99.90
12335;DHT22;6233;51.560;9.986;2022-12-29T07:53:37;9.70;99.90
12335;DHT22;6233;51.560;9.986;2022-12-29T07:56:39;9.80;99.90
12335;DHT22;6233;51.560;9.986;2022-12-29T07:59:44;9.80;99.90
12335;DHT22;6233;51.560;9.986;2022-12-29T08:02:47;9.80;99.90
12335;DHT22;6233;51.560;9.986;2022-12-29T08:05:49;9.80;99.90
12335;DHT22;6233;51.560;9.986;2022-12-29T08:08:51;9.80;99.90
12335;DHT22;6233;51.560;9.986;2022-12-29T08:11:53;9.80;99.90
12335;DHT22;6233;51.560;9.986;2022-12-29T08:14:55;9.70;99.90
12335;DHT22;6233;51.560;9.986;2022-12-29T08:17:57;9.70;99.90
12335;DHT22;6233;51.560;9.986;2022-12-29T08:21:03;9.60;99.90
12335;DHT22;6233;51.560;9.986;2022-12-29T08:24:06;9.50;99.90
12335;DHT22;6233;51.560;9.986;2022-12-29T08:27:07;9.50;99.90
12335;DHT22;6233;51.560;9.986;2022-12-29T08:30:20;9.50;99.90
12335;DHT22;6233;51.560;9.986;2022-12-29T08:33:22;9.50;99.90
12335;DHT22;6233;51.560;9.986;2022-12-29T08:36:24;9.50;99.90
12335;DHT22;6233;51.560;9.986;2022-12-29T08:39:26;9.40;99.90
12335;DHT22;6233;51.560;9.986;2022-12-29T08:42:30;9.40;99.90
12335;DHT22;6233;51.560;9.986;2022-12-29T08:45:32;9.30;99.90
12335;DHT22;6233;51.560;9.986;2022-12-29T08:48:34;9.20;99.90
12335;DHT22;6233;51.560;9.986;2022-12-29T08:51:36;9.10;99.90
12335;DHT22;6233;51.560;9.986;2022-12-29T08:54:38;9.10;99.90
12335;DHT22;6233;51.560;9.986;2022-12-29T08:57:39;9.10;99.90
12335;DHT22;6233;51.560;9.986;2022-12-29T09:00:42;9.00;99.90
12335;DHT22;6233;51.560;9.986;2022-12-29T09:03:47;9.00;99.90
12335;DHT22;6233;51.560;9.986;2022-12-29T09:07:09;9.00;99.90
12335;DHT22;6233;51.560;9.986;2022-12-29T09:10:10;9.00;99.90
12335;DHT22;6233;51.560;9.986;2022-12-29T09:13:13;8.90;99.90
12335;DHT22;6233;51.560;9.986;2022-12-29T09:16:16;8.70;99.90
12335;DHT22;6233;51.560;9.986;2022-12-29T09:19:18;8.70;99.90
12335;DHT22;6233;51.560;9.986;2022-12-29T09:22:20;8.60;99.90
12335;DHT22;6233;51.560;9.986;2022-12-29T09:25:24;8.60;99.90
12335;DHT22;6233;51.560;9.986;2022-12-29T09:28:26;8.60;99.90
12335;DHT22;6233;51.560;9.986;2022-12-29T09:31:33;8.50;99.90
12335;DHT22;6233;51.560;9.986;2022-12-29T09:34:35;8.50;99.90
12335;DHT22;6233;51.560;9.986;2022-12-29T09:37:36;8.50;99.90
12335;DHT22;6233;51.560;9.986;2022-12-29T09:40:39;8.50;99.90
12335;DHT22;6233;51.560;9.986;2022-12-29T09:43:56;8.50;99.90
12335;DHT22;6233;51.560;9.986;2022-12-29T09:47:01;8.40;99.90
12335;DHT22;6233;51.560;9.986;2022-12-29T09:50:04;8.40;99.90
12335;DHT22;6233;51.560;9.986;2022-12-29T09:53:20;8.50;99.90
12335;DHT22;6233;51.560;9.986;2022-12-29T09:56:25;8.50;99.90
12335;DHT22;6233;51.560;9.986;2022-12-29T09:59:41;8.50;99.90
12335;DHT22;6233;51.560;9.986;2022-12-29T10:02:48;8.60;99.90
12335;DHT22;6233;51.560;9.986;2022-12-29T10:05:56;8.60;99.90
12335;DHT22;6233;51.560;9.986;2022-12-29T10:12:40;8.60;99.90
12335;DHT22;6233;51.560;9.986;2022-12-29T10:23:19;9.00;99.90
12335;DHT22;6233;51.560;9.986;2022-12-29T10:26:27;9.20;99.90
12335;DHT22;6233;51.560;9.986;2022-12-29T10:29:37;9.40;99.90
12335;DHT22;6233;51.560;9.986;2022-12-29T10:32:49;9.40;99.90
12335;DHT22;6233;51.560;9.986;2022-12-29T10:35:52;9.50;99.90
12335;DHT22;6233;51.560;9.986;2022-12-29T10:39:11;9.50;99.90
12335;DHT22;6233;51.560;9.986;2022-12-29T10:42:28;9.50;99.90
12335;DHT22;6233;51.560;9.986;2022-12-29T10:45:31;9.60;99.90
12335;DHT22;6233;51.560;9.986;2022-12-29T10:48:35;9.60;99.90
12335;DHT22;6233;51.560;9.986;2022-12-29T10:51:43;9.60;99.90
12335;DHT22;6233;51.560;9.986;2022-12-29T10:55:12;9.60;99.90
12335;DHT22;6233;51.560;9.986;2022-12-29T10:58:17;9.60;99.90
12335;DHT22;6233;51.560;9.986;2022-12-29T11:01:20;9.60;99.90
12335;DHT22;6233;51.560;9.986;2022-12-29T11:08:27;9.80;99.90
12335;DHT22;6233;51.560;9.986;2022-12-29T11:11:34;9.90;99.90
12335;DHT22;6233;51.560;9.986;2022-12-29T11:14:37;10.00;99.90
12335;DHT22;6233;51.560;9.986;2022-12-29T11:17:44;10.00;99.90
12335;DHT22;6233;51.560;9.986;2022-12-29T11:20:48;10.00;99.90
12335;DHT22;6233;51.560;9.986;2022-12-29T11:24:02;10.00;99.90
12335;DHT22;6233;51.560;9.986;2022-12-29T11:27:21;10.00;99.90
12335;DHT22;6233;51.560;9.986;2022-12-29T11:30:30;10.00;99.90
12335;DHT22;6233;51.560;9.986;2022-12-29T11:33:35;10.00;99.90
12335;DHT22;6233;51.560;9.986;2022-12-29T11:36:38;10.00;99.90
12335;DHT22;6233;51.560;9.986;2022-12-29T11:39:51;10.00;99.90
12335;DHT22;6233;51.560;9.986;2022-12-29T11:43:04;9.90;99.90
12335;DHT22;6233;51.560;9.986;2022-12-29T11:46:06;9.90;99.90
12335;DHT22;6233;51.560;9.986;2022-12-29T11:53:36;9.90;99.90
12335;DHT22;6233;51.560;9.986;2022-12-29T11:56:41;9.90;99.90
12335;DHT22;6233;51.560;9.986;2022-12-29T11:59:52;9.90;99.90
12335;DHT22;6233;51.560;9.986;2022-12-29T12:03:15;9.80;99.90
12335;DHT22;6233;51.560;9.986;2022-12-29T12:06:20;9.90;99.90
12335;DHT22;6233;51.560;9.986;2022-12-29T12:09:31;9.90;99.90
12335;DHT22;6233;51.560;9.986;2022-12-29T12:13:37;9.90;99.90
12335;DHT22;6233;51.560;9.986;2022-12-29T12:16:43;9.90;99.90
12335;DHT22;6233;51.560;9.986;2022-12-29T12:19:53;9.90;99.90
12335;DHT22;6233;51.560;9.986;2022-12-29T12:23:27;9.80;99.90
12335;DHT22;6233;51.560;9.986;2022-12-29T12:26:51;9.90;99.90
12335;DHT22;6233;51.560;9.986;2022-12-29T12:30:15;9.80;99.90
12335;DHT22;6233;51.560;9.986;2022-12-29T12:40:48;9.80;99.90
12335;DHT22;6233;51.560;9.986;2022-12-29T12:44:24;9.80;99.90
12335;DHT22;6233;51.560;9.986;2022-12-29T12:50:55;9.80;99.90
12335;DHT22;6233;51.560;9.986;2022-12-29T13:00:24;9.80;99.90
12335;DHT22;6233;51.560;9.986;2022-12-29T13:08:08;9.80;99.90
12335;DHT22;6233;51.560;9.986;2022-12-29T13:17:57;9.70;99.90
12335;DHT22;6233;51.560;9.986;2022-12-29T13:31:01;9.70;99.90
12335;DHT22;6233;51.560;9.986;2022-12-29T13:37:31;9.70;99.90
12335;DHT22;6233;51.560;9.986;2022-12-29T13:40:38;9.70;99.90
12335;DHT22;6233;51.560;9.986;2022-12-29T13:43:43;9.70;99.90
12335;DHT22;6233;51.560;9.986;2022-12-29T13:46:46;9.70;99.90
12335;DHT22;6233;51.560;9.986;2022-12-29T13:49:48;9.70;99.90
12335;DHT22;6233;51.560;9.986;2022-12-29T13:56:12;9.70;99.90
12335;DHT22;6233;51.560;9.986;2022-12-29T13:59:32;9.70;99.90
12335;DHT22;6233;51.560;9.986;2022-12-29T14:06:15;9.70;99.90
12335;DHT22;6233;51.560;9.986;2022-12-29T14:09:54;9.70;99.90
12335;DHT22;6233;51.560;9.986;2022-12-29T14:13:22;9.70;99.90
12335;DHT22;6233;51.560;9.986;2022-12-29T14:16:32;9.70;99.90
12335;DHT22;6233;51.560;9.986;2022-12-29T14:19:40;9.60;99.90
12335;DHT22;6233;51.560;9.986;2022-12-29T14:23:00;9.60;99.90
12335;DHT22;6233;51.560;9.986;2022-12-29T14:29:41;9.50;99.90
12335;DHT22;6233;51.560;9.986;2022-12-29T14:33:01;9.50;99.90
12335;DHT22;6233;51.560;9.986;2022-12-29T14:39:44;9.40;99.90
12335;DHT22;6233;51.560;9.986;2022-12-29T14:42:47;9.40;99.90
12335;DHT22;6233;51.560;9.986;2022-12-29T14:45:58;9.40;99.90
12335;DHT22;6233;51.560;9.986;2022-12-29T14:49:02;9.30;99.90
12335;DHT22;6233;51.560;9.986;2022-12-29T14:52:22;9.30;99.90
12335;DHT22;6233;51.560;9.986;2022-12-29T14:55:47;9.30;99.90
12335;DHT22;6233;51.560;9.986;2022-12-29T14:59:01;9.40;99.90
12335;DHT22;6233;51.560;9.986;2022-12-29T15:02:16;9.40;99.90
12335;DHT22;6233;51.560;9.986;2022-12-29T15:05:31;9.40;99.90
12335;DHT22;6233;51.560;9.986;2022-12-29T15:08:50;9.40;99.90
12335;DHT22;6233;51.560;9.986;2022-12-29T15:11:59;9.40;99.90
12335;DHT22;6233;51.560;9.986;2022-12-29T15:15:17;9.40;99.90
12335;DHT22;6233;51.560;9.986;2022-12-29T15:18:23;9.40;99.90
12335;DHT22;6233;51.560;9.986;2022-12-29T15:21:31;9.40;99.90
12335;DHT22;6233;51.560;9.986;2022-12-29T15:24:34;9.50;99.90
12335;DHT22;6233;51.560;9.986;2022-12-29T15:27:51;9.50;99.90
12335;DHT22;6233;51.560;9.986;2022-12-29T15:31:21;9.40;99.90
12335;DHT22;6233;51.560;9.986;2022-12-29T15:34:46;9.40;99.90
12335;DHT22;6233;51.560;9.986;2022-12-29T15:38:14;9.50;99.90
12335;DHT22;6233;51.560;9.986;2022-12-29T15:41:44;9.40;99.90
12335;DHT22;6233;51.560;9.986;2022-12-29T15:45:13;9.40;99.90
12335;DHT22;6233;51.560;9.986;2022-12-29T15:48:21;9.40;99.90
12335;DHT22;6233;51.560;9.986;2022-12-29T15:51:34;9.40;99.90
12335;DHT22;6233;51.560;9.986;2022-12-29T16:03:26;9.30;99.90
12335;DHT22;6233;51.560;9.986;2022-12-29T16:07:00;9.30;99.90
12335;DHT22;6233;51.560;9.986;2022-12-29T16:10:03;9.30;99.90
12335;DHT22;6233;51.560;9.986;2022-12-29T16:13:22;9.20;99.90
12335;DHT22;6233;51.560;9.986;2022-12-29T16:16:35;9.20;99.90
12335;DHT22;6233;51.560;9.986;2022-12-29T16:20:15;9.20;99.90
12335;DHT22;6233;51.560;9.986;2022-12-29T16:23:24;9.20;99.90
12335;DHT22;6233;51.560;9.986;2022-12-29T16:26:26;9.20;99.90
12335;DHT22;6233;51.560;9.986;2022-12-29T16:29:32;9.10;99.90
12335;DHT22;6233;51.560;9.986;2022-12-29T16:32:34;9.10;99.90
12335;DHT22;6233;51.560;9.986;2022-12-29T16:35:46;9.00;99.90
12335;DHT22;6233;51.560;9.986;2022-12-29T16:38:48;9.00;99.90
12335;DHT22;6233;51.560;9.986;2022-12-29T16:41:50;9.00;99.90
12335;DHT22;6233;51.560;9.986;2022-12-29T16:45:09;9.00;99.90
12335;DHT22;6233;51.560;9.986;2022-12-29T16:48:27;9.00;99.90
12335;DHT22;6233;51.560;9.986;2022-12-29T16:54:06;9.00;99.90
12335;DHT22;6233;51.560;9.986;2022-12-29T16:57:09;9.00;99.90
12335;DHT22;6233;51.560;9.986;2022-12-29T17:01:37;9.00;99.90
12335;DHT22;6233;51.560;9.986;2022-12-29T17:04:39;8.90;99.90
12335;DHT22;6233;51.560;9.986;2022-12-29T17:07:57;8.80;99.90
12335;DHT22;6233;51.560;9.986;2022-12-29T17:11:02;8.80;99.90
12335;DHT22;6233;51.560;9.986;2022-12-29T17:14:48;8.90;99.90
12335;DHT22;6233;51.560;9.986;2022-12-29T17:17:55;8.90;99.90
12335;DHT22;6233;51.560;9.986;2022-12-29T17:20:57;8.80;99.90
12335;DHT22;6233;51.560;9.986;2022-12-29T17:24:02;8.80;99.90
12335;DHT22;6233;51.560;9.986;2022-12-29T17:27:05;8.80;99.90
12335;DHT22;6233;51.560;9.986;2022-12-29T17:33:16;8.90;99.90
12335;DHT22;6233;51.560;9.986;2022-12-29T17:36:18;8.80;99.90
12335;DHT22;6233;51.560;9.986;2022-12-29T17:39:20;8.80;99.90
12335;DHT22;6233;51.560;9.986;2022-12-29T17:42:22;8.80;99.90
12335;DHT22;6233;51.560;9.986;2022-12-29T17:45:28;8.70;99.90
12335;DHT22;6233;51.560;9.986;2022-12-29T17:48:30;8.70;99.90
12335;DHT22;6233;51.560;9.986;2022-12-29T17:51:32;8.70;99.90
12335;DHT22;6233;51.560;9.986;2022-12-29T17:54:34;8.70;99.90
12335;DHT22;6233;51.560;9.986;2022-12-29T17:57:36;8.60;99.90
12335;DHT22;6233;51.560;9.986;2022-12-29T18:00:37;8.60;99.90
12335;DHT22;6233;51.560;9.986;2022-12-29T18:03:39;8.60;99.90
12335;DHT22;6233;51.560;9.986;2022-12-29T18:06:42;8.60;99.90
12335;DHT22;6233;51.560;9.986;2022-12-29T18:09:44;8.60;99.90
12335;DHT22;6233;51.560;9.986;2022-12-29T18:12:48;8.50;99.90
12335;DHT22;6233;51.560;9.986;2022-12-29T18:15:51;8.50;99.90
12335;DHT22;6233;51.560;9.986;2022-12-29T18:18:53;8.50;99.90
12335;DHT22;6233;51.560;9.986;2022-12-29T18:21:55;8.50;99.90
12335;DHT22;6233;51.560;9.986;2022-12-29T18:24:57;8.50;99.90
12335;DHT22;6233;51.560;9.986;2022-12-29T18:27:58;8.40;99.90
12335;DHT22;6233;51.560;9.986;2022-12-29T18:31:01;8.40;99.90
12335;DHT22;6233;51.560;9.986;2022-12-29T18:34:12;8.40;99.90
12335;DHT22;6233;51.560;9.986;2022-12-29T18:37:14;8.40;99.90
12335;DHT22;6233;51.560;9.986;2022-12-29T18:40:16;8.30;99.90
12335;DHT22;6233;51.560;9.986;2022-12-29T18:43:20;8.30;99.90
12335;DHT22;6233;51.560;9.986;2022-12-29T18:46:22;8.30;99.90
12335;DHT22;6233;51.560;9.986;2022-12-29T18:49:24;8.30;99.90
12335;DHT22;6233;51.560;9.986;2022-12-29T18:52:26;8.30;99.90
12335;DHT22;6233;51.560;9.986;2022-12-29T18:55:28;8.20;99.90
12335;DHT22;6233;51.560;9.986;2022-12-29T18:58:31;8.30;99.90
12335;DHT22;6233;51.560;9.986;2022-12-29T19:01:34;8.20;99.90
12335;DHT22;6233;51.560;9.986;2022-12-29T19:04:36;8.20;99.90
12335;DHT22;6233;51.560;9.986;2022-12-29T19:07:38;8.20;99.90
12335;DHT22;6233;51.560;9.986;2022-12-29T19:10:41;8.20;99.90
12335;DHT22;6233;51.560;9.986;2022-12-29T19:13:43;8.20;99.90
12335;DHT22;6233;51.560;9.986;2022-12-29T19:16:45;8.20;99.90
12335;DHT22;6233;51.560;9.986;2022-12-29T19:19:47;8.10;99.90
12335;DHT22;6233;51.560;9.986;2022-12-29T19:22:49;8.10;99.90
12335;DHT22;6233;51.560;9.986;2022-12-29T19:25:53;8.00;99.90
12335;DHT22;6233;51.560;9.986;2022-12-29T19:28:55;8.00;99.90
12335;DHT22;6233;51.560;9.986;2022-12-29T19:31:57;7.90;99.90
12335;DHT22;6233;51.560;9.986;2022-12-29T19:34:59;7.90;99.90
12335;DHT22;6233;51.560;9.986;2022-12-29T19:38:00;7.90;99.90
12335;DHT22;6233;51.560;9.986;2022-12-29T19:41:05;7.80;99.90
12335;DHT22;6233;51.560;9.986;2022-12-29T19:44:07;7.90;99.90
12335;DHT22;6233;51.560;9.986;2022-12-29T19:47:09;7.90;99.90
12335;DHT22;6233;51.560;9.986;2022-12-29T19:50:13;7.90;99.90
12335;DHT22;6233;51.560;9.986;2022-12-29T19:53:16;7.90;99.90
12335;DHT22;6233;51.560;9.986;2022-12-29T19:56:17;7.80;99.90
12335;DHT22;6233;51.560;9.986;2022-12-29T19:59:19;7.80;99.90
12335;DHT22;6233;51.560;9.986;2022-12-29T20:02:27;7.80;99.90
12335;DHT22;6233;51.560;9.986;2022-12-29T20:05:29;7.80;99.90
12335;DHT22;6233;51.560;9.986;2022-12-29T20:08:31;7.70;99.90
12335;DHT22;6233;51.560;9.986;2022-12-29T20:11:33;7.70;99.90
12335;DHT22;6233;51.560;9.986;2022-12-29T20:14:37;7.70;99.90
12335;DHT22;6233;51.560;9.986;2022-12-29T20:17:40;7.60;99.90
12335;DHT22;6233;51.560;9.986;2022-12-29T20:21:16;7.60;99.90
12335;DHT22;6233;51.560;9.986;2022-12-29T20:24:34;7.60;99.90
12335;DHT22;6233;51.560;9.986;2022-12-29T20:27:38;7.60;99.90
12335;DHT22;6233;51.560;9.986;2022-12-29T20:30:40;7.70;99.90
12335;DHT22;6233;51.560;9.986;2022-12-29T20:33:47;7.70;99.90
12335;DHT22;6233;51.560;9.986;2022-12-29T20:36:50;7.70;99.90
12335;DHT22;6233;51.560;9.986;2022-12-29T20:39:52;7.70;99.90
12335;DHT22;6233;51.560;9.986;2022-12-29T20:42:54;7.70;99.90
12335;DHT22;6233;51.560;9.986;2022-12-29T20:45:56;7.70;99.90
12335;DHT22;6233;51.560;9.986;2022-12-29T20:48:58;7.70;99.90
12335;DHT22;6233;51.560;9.986;2022-12-29T20:52:02;7.70;99.90
12335;DHT22;6233;51.560;9.986;2022-12-29T20:55:08;7.70;99.90
12335;DHT22;6233;51.560;9.986;2022-12-29T20:58:13;7.70;99.90
12335;DHT22;6233;51.560;9.986;2022-12-29T21:01:27;7.70;99.90
12335;DHT22;6233;51.560;9.986;2022-12-29T21:04:29;7.70;99.90
12335;DHT22;6233;51.560;9.986;2022-12-29T21:07:52;7.70;99.90
12335;DHT22;6233;51.560;9.986;2022-12-29T21:10:55;7.70;99.90
12335;DHT22;6233;51.560;9.986;2022-12-29T21:13:58;7.70;99.90
12335;DHT22;6233;51.560;9.986;2022-12-29T21:17:02;7.70;99.90
12335;DHT22;6233;51.560;9.986;2022-12-29T21:20:04;7.70;99.90
12335;DHT22;6233;51.560;9.986;2022-12-29T21:23:06;7.60;99.90
12335;DHT22;6233;51.560;9.986;2022-12-29T21:26:10;7.60;99.90
12335;DHT22;6233;51.560;9.986;2022-12-29T21:29:12;7.50;99.90
12335;DHT22;6233;51.560;9.986;2022-12-29T21:32:13;7.50;99.90
12335;DHT22;6233;51.560;9.986;2022-12-29T21:35:15;7.50;99.90
12335;DHT22;6233;51.560;9.986;2022-12-29T21:38:17;7.50;99.90
12335;DHT22;6233;51.560;9.986;2022-12-29T21:41:20;7.50;99.90
12335;DHT22;6233;51.560;9.986;2022-12-29T21:44:25;7.40;99.90
12335;DHT22;6233;51.560;9.986;2022-12-29T21:47:46;7.40;99.90
12335;DHT22;6233;51.560;9.986;2022-12-29T21:51:12;7.40;99.90
12335;DHT22;6233;51.560;9.986;2022-12-29T21:54:36;7.30;99.90
12335;DHT22;6233;51.560;9.986;2022-12-29T21:57:56;7.40;99.90
12335;DHT22;6233;51.560;9.986;2022-12-29T22:01:17;7.40;99.90
12335;DHT22;6233;51.560;9.986;2022-12-29T22:04:37;7.30;99.90
12335;DHT22;6233;51.560;9.986;2022-12-29T22:07:58;7.30;99.90
12335;DHT22;6233;51.560;9.986;2022-12-29T22:11:18;7.30;99.90
12335;DHT22;6233;51.560;9.986;2022-12-29T22:14:39;7.40;99.90
12335;DHT22;6233;51.560;9.986;2022-12-29T22:17:45;7.40;99.90
12335;DHT22;6233;51.560;9.986;2022-12-29T22:20:49;7.40;99.90
12335;DHT22;6233;51.560;9.986;2022-12-29T22:23:52;7.40;99.90
12335;DHT22;6233;51.560;9.986;2022-12-29T22:26:53;7.40;99.90
12335;DHT22;6233;51.560;9.986;2022-12-29T22:29:55;7.40;99.90
12335;DHT22;6233;51.560;9.986;2022-12-29T22:32:57;7.40;99.90
12335;DHT22;6233;51.560;9.986;2022-12-29T22:36:04;7.40;99.90